Hlavní strana
METAR-TAF:

METAR-TAF

Letiště :

Lechfeld, Německo

zeměpisná šířka: 48-11N, zeměpisná délka: 010-52E, výška: 555 m

Aktuální stav počasí

Zpráva byla vytvořena před 1 hodinou a 8 minutami, v 07:20 UTC
Severovýchodní vítr 5 kt
Teplota 22°C
Vlhkost vzduchu 65%
Tlak 1015 hPa
Viditelnost 10 km a více
Skoro jasno ve výšce 3000 ft
Polojasno ve výšce 35000 ft

METAR: ETSL 190720Z 05005KT 9999 FEW030 SCT350 22/15 Q1015 BLU+

Čas: 10:28 (08:28 UTC)


TAF: chybějící

Stav a předpovědi počasí z více než 4 000 letišť (zprávy METAR a TAF).

Červené a žluté tečky na mapě představují dostupné meteorologické stanice.

Když kurzor umístíte na tečku, zobrazí se název stanice.

Pak kliknutím zobrazíte stav a předpověď počasí.

Chcete-li změnit mapu, kliknutím na zelené tlačítko se znaménkem +mapu přiblížíte, kliknutím na zelené tlačítko se znaménkem – mapu oddálíte a kliknutím na zelené šipky přejdete na sousední mapy.


METAR-TAF: